Main page
METAR-TAF:

METAR-TAF

Airports :

Farnborough Airport

Farnborough, England

latitude: 51-17N, longitude: 000-46W, elevation: 65 m

Current weather observation

The report was made 41 minutes ago, at 22:20 UTC
Wind 7 kt from the East
Temperature 6°C
Humidity 93%
Pressure 997 hPa
Visibility: 4200 m
light rain, mist

METAR: EGLF 212220Z AUTO 10007KT 4200 -RA BR BKN003/// BKN020/// OVC041/// 06/05 Q0997

Time: 23:01 (23:01 UTC)

Forecast

The report was made 1 hour and 58 minutes ago, at 21:03 UTC
Forecast valid from 21 at 21 UTC to 21 at 23 UTC
Wind 7 kt from the East
Visibility: 6000 m
Broken clouds at a height of 800 ft
Temporary
from 21 at 21 UTC to 21 at 23 UTC
Visibility: 3000 m
Broken clouds at a height of 300 ft
rain, drizzle
Probability 30% :
Temporary
from 21 at 22 UTC to 21 at 23 UTC
Visibility 10 km or more
Scattered clouds at a height of 800 ft

TAF: EGLF 212103Z 2121/2123 10007KT 6000 BKN008 TEMPO 2121/2123 3000 RADZ BKN003 PROB30 TEMPO 2122/2123 9999 SCT008

Weather observations and forecasts of more than 4000 airports (METAR and TAF reports).

The available stations are represented by yellow and red dots on the map.

Hover mouse over dot to see the name of the station.

Then click to see weather observations and forecasts.

To change the map : click on the green buttons with a black cross to zoom in, on the green button with a dash to zoom out, or on the green arrows for adjacent maps.


METAR-TAF: